Nissequogue, New York
Current Conditions -  °F | °C
As of 6:56 PM on Wednesday 22 Oct 2014 (Local Time) from KISP Reporting Station
Moderate Rain Moderate Rain  
Wind Chill: 52°   Ceiling: 1400
Heat Index: 52°   Visibility: 6mi
Dew Point: 49°   Wind: 21mph
Humidity: 89%   Direction: 10°N
Pressure: 29.72"   Gusts: 31mph
Location:  40.8903°N, 73.169°W
Report Text: KISP 222256Z 01018G27KT 6SM RA BR FEW011 BKN014 OVC026 11/09 A2972 RMK AO2 PK WND 01029/2240 SLP062 P0013 T01110094
Loading
Personal Weather Stations






























Interactive Weather Map
Tropical Storm Tracking
New forecast layout! Learn more

10-Day Weather Forecast

Advertisements
Track Severe Weather on mobile